Oylen, Minnesota
Current Conditions -  °F | °C
As of 8:13 AM on Thursday 23 Oct 2014 (Local Time) from KSAZ Reporting Station
Haze Haze  
Wind Chill: 48°   Ceiling: 400
Heat Index: 48°   Visibility: 4mi
Dew Point: 48°   Wind: 3mph
Humidity: 100%   Direction: 210°SSW
Pressure: 29.95"   Gusts: NA
Location:  46.4671°N, 94.8901°W
Report Text: KSAZ 231313Z AUTO 21003KT 4SM BR OVC004 09/09 A2995 RMK AO2
Loading
Personal Weather Stations






























Interactive Weather Map
Tropical Storm Tracking
New forecast layout! Learn more

10-Day Weather Forecast

Advertisements
Track Severe Weather on mobile